sensor_id;sensor_type;location;lat;lon;timestamp;temperature;humidity
18384;DHT22;9318;48.644;9.456;2024-01-15T00:00:18;-2.10;99.90
18384;DHT22;9318;48.644;9.456;2024-01-15T00:02:44;-2.10;99.90
18384;DHT22;9318;48.644;9.456;2024-01-15T00:05:11;-2.10;99.90
18384;DHT22;9318;48.644;9.456;2024-01-15T00:07:38;-2.10;99.90
18384;DHT22;9318;48.644;9.456;2024-01-15T00:10:05;-2.00;99.90
18384;DHT22;9318;48.644;9.456;2024-01-15T00:12:32;-2.00;99.90
18384;DHT22;9318;48.644;9.456;2024-01-15T00:15:00;-2.00;99.90
18384;DHT22;9318;48.644;9.456;2024-01-15T00:17:27;-2.10;99.90
18384;DHT22;9318;48.644;9.456;2024-01-15T00:19:54;-2.10;99.90
18384;DHT22;9318;48.644;9.456;2024-01-15T00:22:20;-2.10;99.90
18384;DHT22;9318;48.644;9.456;2024-01-15T00:24:47;-2.10;99.90
18384;DHT22;9318;48.644;9.456;2024-01-15T00:27:14;-2.10;99.90
18384;DHT22;9318;48.644;9.456;2024-01-15T00:29:41;-2.10;99.90
18384;DHT22;9318;48.644;9.456;2024-01-15T00:32:09;-2.20;99.90
18384;DHT22;9318;48.644;9.456;2024-01-15T00:34:35;-2.00;99.90
18384;DHT22;9318;48.644;9.456;2024-01-15T00:37:02;-2.00;99.90
18384;DHT22;9318;48.644;9.456;2024-01-15T00:39:32;-2.00;99.90
18384;DHT22;9318;48.644;9.456;2024-01-15T00:41:59;-1.90;99.90
18384;DHT22;9318;48.644;9.456;2024-01-15T00:44:25;-1.90;99.90
18384;DHT22;9318;48.644;9.456;2024-01-15T00:46:52;-1.90;99.90
18384;DHT22;9318;48.644;9.456;2024-01-15T00:49:20;-1.90;99.90
18384;DHT22;9318;48.644;9.456;2024-01-15T00:51:47;-1.90;99.90
18384;DHT22;9318;48.644;9.456;2024-01-15T00:54:14;-1.90;99.90
18384;DHT22;9318;48.644;9.456;2024-01-15T00:56:40;-1.80;99.90
18384;DHT22;9318;48.644;9.456;2024-01-15T00:59:07;-1.80;99.90
18384;DHT22;9318;48.644;9.456;2024-01-15T01:01:35;-1.90;99.90
18384;DHT22;9318;48.644;9.456;2024-01-15T01:04:03;-1.90;99.90
18384;DHT22;9318;48.644;9.456;2024-01-15T01:06:31;-1.90;99.90
18384;DHT22;9318;48.644;9.456;2024-01-15T01:08:58;-1.90;99.90
18384;DHT22;9318;48.644;9.456;2024-01-15T01:11:25;-1.90;99.90
18384;DHT22;9318;48.644;9.456;2024-01-15T01:13:52;-1.90;99.90
18384;DHT22;9318;48.644;9.456;2024-01-15T01:16:18;-1.90;99.90
18384;DHT22;9318;48.644;9.456;2024-01-15T01:18:45;-1.90;99.90
18384;DHT22;9318;48.644;9.456;2024-01-15T01:21:12;-1.80;99.90
18384;DHT22;9318;48.644;9.456;2024-01-15T01:23:40;-1.90;99.90
18384;DHT22;9318;48.644;9.456;2024-01-15T01:26:07;-1.90;99.90
18384;DHT22;9318;48.644;9.456;2024-01-15T01:28:33;-1.80;99.90
18384;DHT22;9318;48.644;9.456;2024-01-15T01:31:00;-1.80;99.90
18384;DHT22;9318;48.644;9.456;2024-01-15T01:33:27;-1.80;99.90
18384;DHT22;9318;48.644;9.456;2024-01-15T01:35:54;-1.70;99.90
18384;DHT22;9318;48.644;9.456;2024-01-15T01:38:21;-1.80;99.90
18384;DHT22;9318;48.644;9.456;2024-01-15T01:40:50;-1.80;99.90
18384;DHT22;9318;48.644;9.456;2024-01-15T01:43:16;-1.80;99.90
18384;DHT22;9318;48.644;9.456;2024-01-15T01:45:43;-1.80;99.90
18384;DHT22;9318;48.644;9.456;2024-01-15T01:48:10;-1.70;99.90
18384;DHT22;9318;48.644;9.456;2024-01-15T01:50:37;-1.70;99.90
18384;DHT22;9318;48.644;9.456;2024-01-15T01:53:04;-1.70;99.90
18384;DHT22;9318;48.644;9.456;2024-01-15T01:55:31;-1.70;99.90
18384;DHT22;9318;48.644;9.456;2024-01-15T01:58:02;-1.70;99.90
18384;DHT22;9318;48.644;9.456;2024-01-15T02:00:30;-1.70;99.90
18384;DHT22;9318;48.644;9.456;2024-01-15T02:02:57;-1.70;99.90
18384;DHT22;9318;48.644;9.456;2024-01-15T02:05:24;-1.70;99.90
18384;DHT22;9318;48.644;9.456;2024-01-15T02:07:51;-1.70;99.90
18384;DHT22;9318;48.644;9.456;2024-01-15T02:10:18;-1.70;99.90
18384;DHT22;9318;48.644;9.456;2024-01-15T02:12:44;-1.70;99.90
18384;DHT22;9318;48.644;9.456;2024-01-15T02:15:15;-1.70;99.90
18384;DHT22;9318;48.644;9.456;2024-01-15T02:17:58;-1.70;99.90
18384;DHT22;9318;48.644;9.456;2024-01-15T02:20:25;-1.60;99.90
18384;DHT22;9318;48.644;9.456;2024-01-15T02:22:52;-1.60;99.90
18384;DHT22;9318;48.644;9.456;2024-01-15T02:25:20;-1.60;99.90
18384;DHT22;9318;48.644;9.456;2024-01-15T02:27:47;-1.60;99.90
18384;DHT22;9318;48.644;9.456;2024-01-15T02:30:14;-1.60;99.90
18384;DHT22;9318;48.644;9.456;2024-01-15T02:32:42;-1.50;99.90
18384;DHT22;9318;48.644;9.456;2024-01-15T02:35:08;-1.50;99.90
18384;DHT22;9318;48.644;9.456;2024-01-15T02:37:36;-1.50;99.90
18384;DHT22;9318;48.644;9.456;2024-01-15T02:40:03;-1.50;99.90
18384;DHT22;9318;48.644;9.456;2024-01-15T02:42:31;-1.50;99.90
18384;DHT22;9318;48.644;9.456;2024-01-15T02:44:58;-1.50;99.90
18384;DHT22;9318;48.644;9.456;2024-01-15T02:47:25;-1.50;99.90
18384;DHT22;9318;48.644;9.456;2024-01-15T02:49:52;-1.50;99.90
18384;DHT22;9318;48.644;9.456;2024-01-15T02:52:18;-1.40;99.90
18384;DHT22;9318;48.644;9.456;2024-01-15T02:54:45;-1.40;99.90
18384;DHT22;9318;48.644;9.456;2024-01-15T02:57:12;-1.40;99.90
18384;DHT22;9318;48.644;9.456;2024-01-15T02:59:40;-1.30;99.90
18384;DHT22;9318;48.644;9.456;2024-01-15T03:02:07;-1.30;99.90
18384;DHT22;9318;48.644;9.456;2024-01-15T03:04:34;-1.20;99.90
18384;DHT22;9318;48.644;9.456;2024-01-15T03:07:00;-1.20;99.90
18384;DHT22;9318;48.644;9.456;2024-01-15T03:09:27;-1.20;99.90
18384;DHT22;9318;48.644;9.456;2024-01-15T03:11:54;-1.10;99.90
18384;DHT22;9318;48.644;9.456;2024-01-15T03:14:20;-1.10;99.90
18384;DHT22;9318;48.644;9.456;2024-01-15T03:16:51;-1.10;99.90
18384;DHT22;9318;48.644;9.456;2024-01-15T03:19:18;-1.00;99.90
18384;DHT22;9318;48.644;9.456;2024-01-15T03:21:45;-1.00;99.90
18384;DHT22;9318;48.644;9.456;2024-01-15T03:24:11;-1.00;99.90
18384;DHT22;9318;48.644;9.456;2024-01-15T03:26:38;-1.00;99.90
18384;DHT22;9318;48.644;9.456;2024-01-15T03:29:05;-1.00;99.90
18384;DHT22;9318;48.644;9.456;2024-01-15T03:31:32;-1.00;99.90
18384;DHT22;9318;48.644;9.456;2024-01-15T03:34:00;-1.10;99.90
18384;DHT22;9318;48.644;9.456;2024-01-15T03:36:27;-1.10;99.90
18384;DHT22;9318;48.644;9.456;2024-01-15T03:38:54;-1.10;99.90
18384;DHT22;9318;48.644;9.456;2024-01-15T03:41:21;-1.10;99.90
18384;DHT22;9318;48.644;9.456;2024-01-15T03:43:47;-1.10;99.90
18384;DHT22;9318;48.644;9.456;2024-01-15T03:46:14;-1.10;99.90
18384;DHT22;9318;48.644;9.456;2024-01-15T03:48:41;-1.10;99.90
18384;DHT22;9318;48.644;9.456;2024-01-15T03:51:09;-1.10;99.90
18384;DHT22;9318;48.644;9.456;2024-01-15T03:53:36;-1.10;99.90
18384;DHT22;9318;48.644;9.456;2024-01-15T03:56:03;-1.10;99.90
18384;DHT22;9318;48.644;9.456;2024-01-15T03:58:30;-1.10;99.90
18384;DHT22;9318;48.644;9.456;2024-01-15T04:00:56;-1.10;99.90
18384;DHT22;9318;48.644;9.456;2024-01-15T04:03:23;-1.10;99.90
18384;DHT22;9318;48.644;9.456;2024-01-15T04:05:50;-1.10;99.90
18384;DHT22;9318;48.644;9.456;2024-01-15T04:08:18;-1.10;99.90
18384;DHT22;9318;48.644;9.456;2024-01-15T04:10:45;-1.10;99.90
18384;DHT22;9318;48.644;9.456;2024-01-15T04:13:12;-1.10;99.90
18384;DHT22;9318;48.644;9.456;2024-01-15T04:15:38;-1.10;99.90
18384;DHT22;9318;48.644;9.456;2024-01-15T04:18:05;-1.00;99.90
18384;DHT22;9318;48.644;9.456;2024-01-15T04:20:32;-1.00;99.90
18384;DHT22;9318;48.644;9.456;2024-01-15T04:22:59;-1.10;99.90
18384;DHT22;9318;48.644;9.456;2024-01-15T04:25:27;-1.10;99.90
18384;DHT22;9318;48.644;9.456;2024-01-15T04:27:53;-1.00;99.90
18384;DHT22;9318;48.644;9.456;2024-01-15T04:30:20;-1.00;99.90
18384;DHT22;9318;48.644;9.456;2024-01-15T04:32:47;-1.00;99.90
18384;DHT22;9318;48.644;9.456;2024-01-15T04:35:14;-1.00;99.90
18384;DHT22;9318;48.644;9.456;2024-01-15T04:37:41;-1.00;99.90
18384;DHT22;9318;48.644;9.456;2024-01-15T04:40:08;-1.00;99.90
18384;DHT22;9318;48.644;9.456;2024-01-15T04:42:37;-1.00;99.90
18384;DHT22;9318;48.644;9.456;2024-01-15T04:45:04;-1.00;99.90
18384;DHT22;9318;48.644;9.456;2024-01-15T04:47:31;-0.90;99.90
18384;DHT22;9318;48.644;9.456;2024-01-15T04:49:58;-0.90;99.90
18384;DHT22;9318;48.644;9.456;2024-01-15T04:52:24;-0.90;99.90
18384;DHT22;9318;48.644;9.456;2024-01-15T04:54:51;-1.00;99.90
18384;DHT22;9318;48.644;9.456;2024-01-15T04:57:18;-0.90;99.90
18384;DHT22;9318;48.644;9.456;2024-01-15T04:59:46;-0.90;99.90
18384;DHT22;9318;48.644;9.456;2024-01-15T05:02:13;-0.90;99.90
18384;DHT22;9318;48.644;9.456;2024-01-15T05:04:39;-0.90;99.90
18384;DHT22;9318;48.644;9.456;2024-01-15T05:07:06;-0.90;99.90
18384;DHT22;9318;48.644;9.456;2024-01-15T05:09:34;-0.90;99.90
18384;DHT22;9318;48.644;9.456;2024-01-15T05:12:00;-0.90;99.90
18384;DHT22;9318;48.644;9.456;2024-01-15T05:14:27;-0.90;99.90
18384;DHT22;9318;48.644;9.456;2024-01-15T05:16:55;-0.90;99.90
18384;DHT22;9318;48.644;9.456;2024-01-15T05:19:22;-0.90;99.90
18384;DHT22;9318;48.644;9.456;2024-01-15T05:21:49;-0.90;99.90
18384;DHT22;9318;48.644;9.456;2024-01-15T05:24:15;-0.90;99.90
18384;DHT22;9318;48.644;9.456;2024-01-15T05:26:42;-0.90;99.90
18384;DHT22;9318;48.644;9.456;2024-01-15T05:29:09;-0.90;99.90
18384;DHT22;9318;48.644;9.456;2024-01-15T05:31:36;-0.80;99.90
18384;DHT22;9318;48.644;9.456;2024-01-15T05:34:04;-0.80;99.90
18384;DHT22;9318;48.644;9.456;2024-01-15T05:36:30;-0.80;99.90
18384;DHT22;9318;48.644;9.456;2024-01-15T05:38:57;-0.70;99.90
18384;DHT22;9318;48.644;9.456;2024-01-15T05:41:24;-0.70;99.90
18384;DHT22;9318;48.644;9.456;2024-01-15T05:43:51;-0.70;99.90
18384;DHT22;9318;48.644;9.456;2024-01-15T05:46:17;-0.70;99.90
18384;DHT22;9318;48.644;9.456;2024-01-15T05:48:44;-0.70;99.90
18384;DHT22;9318;48.644;9.456;2024-01-15T05:51:12;-0.70;99.90
18384;DHT22;9318;48.644;9.456;2024-01-15T05:53:39;-0.80;99.90
18384;DHT22;9318;48.644;9.456;2024-01-15T05:56:08;-0.80;99.90
18384;DHT22;9318;48.644;9.456;2024-01-15T05:58:36;-0.70;99.90
18384;DHT22;9318;48.644;9.456;2024-01-15T06:01:03;-0.70;99.90
18384;DHT22;9318;48.644;9.456;2024-01-15T06:03:29;-0.70;99.90
18384;DHT22;9318;48.644;9.456;2024-01-15T06:05:56;-0.60;99.90
18384;DHT22;9318;48.644;9.456;2024-01-15T06:08:25;-0.60;99.90
18384;DHT22;9318;48.644;9.456;2024-01-15T06:10:53;-0.60;99.90
18384;DHT22;9318;48.644;9.456;2024-01-15T06:13:20;-0.60;99.90
18384;DHT22;9318;48.644;9.456;2024-01-15T06:15:46;-0.60;99.90
18384;DHT22;9318;48.644;9.456;2024-01-15T06:18:13;-0.60;99.90
18384;DHT22;9318;48.644;9.456;2024-01-15T06:20:40;-0.60;99.90
18384;DHT22;9318;48.644;9.456;2024-01-15T06:23:07;-0.50;99.90
18384;DHT22;9318;48.644;9.456;2024-01-15T06:25:35;-0.50;99.90
18384;DHT22;9318;48.644;9.456;2024-01-15T06:28:01;-0.50;99.90
18384;DHT22;9318;48.644;9.456;2024-01-15T06:30:30;-0.40;99.90
18384;DHT22;9318;48.644;9.456;2024-01-15T06:32:57;-0.40;99.90
18384;DHT22;9318;48.644;9.456;2024-01-15T06:35:23;-0.30;99.90
18384;DHT22;9318;48.644;9.456;2024-01-15T06:37:50;-0.30;99.90
18384;DHT22;9318;48.644;9.456;2024-01-15T06:40:17;-0.30;99.90
18384;DHT22;9318;48.644;9.456;2024-01-15T06:42:45;-0.20;99.90
18384;DHT22;9318;48.644;9.456;2024-01-15T06:45:12;-0.20;99.90
18384;DHT22;9318;48.644;9.456;2024-01-15T06:47:39;-0.10;99.90
18384;DHT22;9318;48.644;9.456;2024-01-15T06:50:06;-0.10;99.90
18384;DHT22;9318;48.644;9.456;2024-01-15T06:52:32;-0.10;99.90
18384;DHT22;9318;48.644;9.456;2024-01-15T06:54:59;-0.10;99.90
18384;DHT22;9318;48.644;9.456;2024-01-15T06:57:26;0.00;99.90
18384;DHT22;9318;48.644;9.456;2024-01-15T06:59:54;0.00;99.90
18384;DHT22;9318;48.644;9.456;2024-01-15T07:02:21;-0.10;99.90
18384;DHT22;9318;48.644;9.456;2024-01-15T07:04:48;0.00;99.90
18384;DHT22;9318;48.644;9.456;2024-01-15T07:07:14;0.00;99.90
18384;DHT22;9318;48.644;9.456;2024-01-15T07:09:41;0.10;99.90
18384;DHT22;9318;48.644;9.456;2024-01-15T07:12:08;0.10;99.90
18384;DHT22;9318;48.644;9.456;2024-01-15T07:14:35;0.10;99.90
18384;DHT22;9318;48.644;9.456;2024-01-15T07:17:03;0.10;99.90
18384;DHT22;9318;48.644;9.456;2024-01-15T07:19:30;0.20;99.90
18384;DHT22;9318;48.644;9.456;2024-01-15T07:21:56;0.10;99.90
18384;DHT22;9318;48.644;9.456;2024-01-15T07:24:23;0.10;99.90
18384;DHT22;9318;48.644;9.456;2024-01-15T07:26:50;0.20;99.90
18384;DHT22;9318;48.644;9.456;2024-01-15T07:29:16;0.20;99.90
18384;DHT22;9318;48.644;9.456;2024-01-15T07:31:48;0.20;99.90
18384;DHT22;9318;48.644;9.456;2024-01-15T07:34:16;0.20;99.90
18384;DHT22;9318;48.644;9.456;2024-01-15T07:36:44;0.20;99.90
18384;DHT22;9318;48.644;9.456;2024-01-15T07:39:11;0.20;99.90
18384;DHT22;9318;48.644;9.456;2024-01-15T07:41:37;0.20;99.90
18384;DHT22;9318;48.644;9.456;2024-01-15T07:44:04;0.20;99.90
18384;DHT22;9318;48.644;9.456;2024-01-15T07:46:31;0.20;99.90
18384;DHT22;9318;48.644;9.456;2024-01-15T07:48:58;0.20;99.90
18384;DHT22;9318;48.644;9.456;2024-01-15T07:51:26;0.30;99.90
18384;DHT22;9318;48.644;9.456;2024-01-15T07:53:53;0.30;99.90
18384;DHT22;9318;48.644;9.456;2024-01-15T07:56:20;0.30;99.90
18384;DHT22;9318;48.644;9.456;2024-01-15T07:58:47;0.30;99.90
18384;DHT22;9318;48.644;9.456;2024-01-15T08:01:15;0.30;99.90
18384;DHT22;9318;48.644;9.456;2024-01-15T08:03:42;0.30;99.90
18384;DHT22;9318;48.644;9.456;2024-01-15T08:06:09;0.30;99.90
18384;DHT22;9318;48.644;9.456;2024-01-15T08:08:37;0.30;99.90
18384;DHT22;9318;48.644;9.456;2024-01-15T08:11:04;0.30;99.90
18384;DHT22;9318;48.644;9.456;2024-01-15T08:13:31;0.40;99.90
18384;DHT22;9318;48.644;9.456;2024-01-15T08:15:58;0.40;99.90
18384;DHT22;9318;48.644;9.456;2024-01-15T08:18:25;0.40;99.90
18384;DHT22;9318;48.644;9.456;2024-01-15T08:20:51;0.40;99.90
18384;DHT22;9318;48.644;9.456;2024-01-15T08:23:19;0.40;99.90
18384;DHT22;9318;48.644;9.456;2024-01-15T08:25:48;0.40;99.90
18384;DHT22;9318;48.644;9.456;2024-01-15T08:28:16;0.40;99.90
18384;DHT22;9318;48.644;9.456;2024-01-15T08:30:43;0.40;99.90
18384;DHT22;9318;48.644;9.456;2024-01-15T08:33:09;0.50;99.90
18384;DHT22;9318;48.644;9.456;2024-01-15T08:35:36;0.50;99.90
18384;DHT22;9318;48.644;9.456;2024-01-15T08:38:03;0.60;99.90
18384;DHT22;9318;48.644;9.456;2024-01-15T08:40:30;0.60;99.90
18384;DHT22;9318;48.644;9.456;2024-01-15T08:42:58;0.70;99.90
18384;DHT22;9318;48.644;9.456;2024-01-15T08:45:25;0.70;99.90
18384;DHT22;9318;48.644;9.456;2024-01-15T08:47:52;0.80;99.90
18384;DHT22;9318;48.644;9.456;2024-01-15T08:50:19;0.80;99.90
18384;DHT22;9318;48.644;9.456;2024-01-15T08:52:45;0.90;99.90
18384;DHT22;9318;48.644;9.456;2024-01-15T08:55:12;0.90;99.90
18384;DHT22;9318;48.644;9.456;2024-01-15T08:57:39;0.90;99.90
18384;DHT22;9318;48.644;9.456;2024-01-15T09:00:07;1.00;99.90
18384;DHT22;9318;48.644;9.456;2024-01-15T09:02:34;1.10;99.90
18384;DHT22;9318;48.644;9.456;2024-01-15T09:05:01;1.10;99.90
18384;DHT22;9318;48.644;9.456;2024-01-15T09:07:29;1.10;99.90
18384;DHT22;9318;48.644;9.456;2024-01-15T09:09:56;1.20;99.90
18384;DHT22;9318;48.644;9.456;2024-01-15T09:12:24;1.20;99.90
18384;DHT22;9318;48.644;9.456;2024-01-15T09:14:51;1.20;99.90
18384;DHT22;9318;48.644;9.456;2024-01-15T09:17:20;1.30;99.90
18384;DHT22;9318;48.644;9.456;2024-01-15T09:19:49;1.30;99.90
18384;DHT22;9318;48.644;9.456;2024-01-15T09:22:15;1.40;99.90
18384;DHT22;9318;48.644;9.456;2024-01-15T09:24:43;1.40;99.90
18384;DHT22;9318;48.644;9.456;2024-01-15T09:27:10;1.40;99.90
18384;DHT22;9318;48.644;9.456;2024-01-15T09:29:37;1.50;99.90
18384;DHT22;9318;48.644;9.456;2024-01-15T09:32:05;1.50;99.90
18384;DHT22;9318;48.644;9.456;2024-01-15T09:34:35;1.50;99.90
18384;DHT22;9318;48.644;9.456;2024-01-15T09:37:03;1.50;99.90
18384;DHT22;9318;48.644;9.456;2024-01-15T09:39:30;1.60;99.90
18384;DHT22;9318;48.644;9.456;2024-01-15T09:41:58;1.60;99.90
18384;DHT22;9318;48.644;9.456;2024-01-15T09:44:25;1.70;99.90
18384;DHT22;9318;48.644;9.456;2024-01-15T09:46:53;1.70;99.90
18384;DHT22;9318;48.644;9.456;2024-01-15T09:49:21;1.80;99.90
18384;DHT22;9318;48.644;9.456;2024-01-15T09:51:50;1.80;99.90
18384;DHT22;9318;48.644;9.456;2024-01-15T09:54:17;1.80;99.90
18384;DHT22;9318;48.644;9.456;2024-01-15T09:56:45;1.80;99.90
18384;DHT22;9318;48.644;9.456;2024-01-15T09:59:15;1.80;99.90
18384;DHT22;9318;48.644;9.456;2024-01-15T10:01:43;1.90;99.90
18384;DHT22;9318;48.644;9.456;2024-01-15T10:04:09;1.90;99.90
18384;DHT22;9318;48.644;9.456;2024-01-15T10:06:38;2.00;99.90
18384;DHT22;9318;48.644;9.456;2024-01-15T10:09:07;2.00;99.90
18384;DHT22;9318;48.644;9.456;2024-01-15T10:11:34;2.00;99.90
18384;DHT22;9318;48.644;9.456;2024-01-15T10:14:02;2.00;99.90
18384;DHT22;9318;48.644;9.456;2024-01-15T10:16:29;2.00;99.90
18384;DHT22;9318;48.644;9.456;2024-01-15T10:18:56;2.00;99.90
18384;DHT22;9318;48.644;9.456;2024-01-15T10:21:23;2.10;99.90
18384;DHT22;9318;48.644;9.456;2024-01-15T10:23:52;2.10;99.90
18384;DHT22;9318;48.644;9.456;2024-01-15T10:26:24;2.20;99.90
18384;DHT22;9318;48.644;9.456;2024-01-15T10:28:51;2.20;99.90
18384;DHT22;9318;48.644;9.456;2024-01-15T10:31:19;2.10;99.90
18384;DHT22;9318;48.644;9.456;2024-01-15T10:33:47;2.10;99.90
18384;DHT22;9318;48.644;9.456;2024-01-15T10:36:14;2.10;99.90
18384;DHT22;9318;48.644;9.456;2024-01-15T10:38:42;2.10;99.90
18384;DHT22;9318;48.644;9.456;2024-01-15T10:41:09;2.10;99.90
18384;DHT22;9318;48.644;9.456;2024-01-15T10:43:38;2.10;99.90
18384;DHT22;9318;48.644;9.456;2024-01-15T10:46:07;2.10;99.90
18384;DHT22;9318;48.644;9.456;2024-01-15T10:48:34;2.10;99.90
18384;DHT22;9318;48.644;9.456;2024-01-15T10:51:01;2.10;99.90
18384;DHT22;9318;48.644;9.456;2024-01-15T10:53:35;2.10;99.90
18384;DHT22;9318;48.644;9.456;2024-01-15T10:56:04;2.10;99.90
18384;DHT22;9318;48.644;9.456;2024-01-15T10:58:31;2.10;99.90
18384;DHT22;9318;48.644;9.456;2024-01-15T11:01:01;2.10;99.90
18384;DHT22;9318;48.644;9.456;2024-01-15T11:03:30;2.10;99.90
18384;DHT22;9318;48.644;9.456;2024-01-15T11:05:57;2.20;99.90
18384;DHT22;9318;48.644;9.456;2024-01-15T11:08:25;2.30;99.90
18384;DHT22;9318;48.644;9.456;2024-01-15T11:10:52;2.30;99.90
18384;DHT22;9318;48.644;9.456;2024-01-15T11:13:21;2.30;99.90
18384;DHT22;9318;48.644;9.456;2024-01-15T11:16:03;2.30;99.90
18384;DHT22;9318;48.644;9.456;2024-01-15T11:18:31;2.40;99.90
18384;DHT22;9318;48.644;9.456;2024-01-15T11:21:20;2.40;99.90
18384;DHT22;9318;48.644;9.456;2024-01-15T11:23:48;2.30;99.90
18384;DHT22;9318;48.644;9.456;2024-01-15T11:26:32;2.30;99.90
18384;DHT22;9318;48.644;9.456;2024-01-15T11:29:01;2.30;99.90
18384;DHT22;9318;48.644;9.456;2024-01-15T11:31:57;2.30;99.90
18384;DHT22;9318;48.644;9.456;2024-01-15T11:34:55;2.30;99.90
18384;DHT22;9318;48.644;9.456;2024-01-15T11:37:25;2.30;99.90
18384;DHT22;9318;48.644;9.456;2024-01-15T11:39:53;2.30;99.90
18384;DHT22;9318;48.644;9.456;2024-01-15T11:42:20;2.20;99.90
18384;DHT22;9318;48.644;9.456;2024-01-15T11:44:47;2.20;99.90
18384;DHT22;9318;48.644;9.456;2024-01-15T11:47:29;2.20;99.90
18384;DHT22;9318;48.644;9.456;2024-01-15T11:50:00;2.10;99.90
18384;DHT22;9318;48.644;9.456;2024-01-15T11:52:32;2.10;99.90
18384;DHT22;9318;48.644;9.456;2024-01-15T11:55:05;2.10;99.90
18384;DHT22;9318;48.644;9.456;2024-01-15T11:57:40;2.20;99.90
18384;DHT22;9318;48.644;9.456;2024-01-15T12:00:09;2.20;99.90
18384;DHT22;9318;48.644;9.456;2024-01-15T12:02:39;2.20;99.90
18384;DHT22;9318;48.644;9.456;2024-01-15T12:05:07;2.20;99.90
18384;DHT22;9318;48.644;9.456;2024-01-15T12:07:34;2.20;99.90
18384;DHT22;9318;48.644;9.456;2024-01-15T12:10:01;2.10;99.90
18384;DHT22;9318;48.644;9.456;2024-01-15T12:12:35;2.00;99.90
18384;DHT22;9318;48.644;9.456;2024-01-15T12:15:04;2.10;99.90
18384;DHT22;9318;48.644;9.456;2024-01-15T12:17:31;2.10;99.90
18384;DHT22;9318;48.644;9.456;2024-01-15T12:19:59;2.00;99.90
18384;DHT22;9318;48.644;9.456;2024-01-15T12:22:26;1.90;99.90
18384;DHT22;9318;48.644;9.456;2024-01-15T12:24:54;1.90;99.90
18384;DHT22;9318;48.644;9.456;2024-01-15T12:27:21;1.90;99.90
18384;DHT22;9318;48.644;9.456;2024-01-15T12:29:48;1.80;99.90
18384;DHT22;9318;48.644;9.456;2024-01-15T12:32:15;1.80;99.90
18384;DHT22;9318;48.644;9.456;2024-01-15T12:34:43;1.70;99.90
18384;DHT22;9318;48.644;9.456;2024-01-15T12:37:11;1.70;99.90
18384;DHT22;9318;48.644;9.456;2024-01-15T12:39:38;1.70;99.90
18384;DHT22;9318;48.644;9.456;2024-01-15T12:42:05;1.70;99.90
18384;DHT22;9318;48.644;9.456;2024-01-15T12:44:32;1.70;99.90
18384;DHT22;9318;48.644;9.456;2024-01-15T12:46:59;1.80;99.90
18384;DHT22;9318;48.644;9.456;2024-01-15T12:49:26;1.70;99.90
18384;DHT22;9318;48.644;9.456;2024-01-15T12:51:53;1.70;99.90
18384;DHT22;9318;48.644;9.456;2024-01-15T12:54:22;1.60;99.90
18384;DHT22;9318;48.644;9.456;2024-01-15T12:56:49;1.50;99.90
18384;DHT22;9318;48.644;9.456;2024-01-15T12:59:16;1.50;99.90
18384;DHT22;9318;48.644;9.456;2024-01-15T13:01:43;1.40;99.90
18384;DHT22;9318;48.644;9.456;2024-01-15T13:04:10;1.40;99.90
18384;DHT22;9318;48.644;9.456;2024-01-15T13:06:37;1.30;99.90
18384;DHT22;9318;48.644;9.456;2024-01-15T13:09:04;1.30;99.90
18384;DHT22;9318;48.644;9.456;2024-01-15T13:11:32;1.20;99.90
18384;DHT22;9318;48.644;9.456;2024-01-15T13:13:59;1.20;99.90
18384;DHT22;9318;48.644;9.456;2024-01-15T13:16:26;1.20;99.90
18384;DHT22;9318;48.644;9.456;2024-01-15T13:18:54;1.10;99.90
18384;DHT22;9318;48.644;9.456;2024-01-15T13:21:21;1.10;99.90
18384;DHT22;9318;48.644;9.456;2024-01-15T13:23:48;1.10;99.90
18384;DHT22;9318;48.644;9.456;2024-01-15T13:26:15;1.10;99.90
18384;DHT22;9318;48.644;9.456;2024-01-15T13:28:45;1.10;99.90
18384;DHT22;9318;48.644;9.456;2024-01-15T13:31:12;1.10;99.90
18384;DHT22;9318;48.644;9.456;2024-01-15T13:33:38;1.10;99.90
18384;DHT22;9318;48.644;9.456;2024-01-15T13:36:06;1.10;99.90
18384;DHT22;9318;48.644;9.456;2024-01-15T13:38:36;1.20;99.90
18384;DHT22;9318;48.644;9.456;2024-01-15T13:41:04;1.10;99.90
18384;DHT22;9318;48.644;9.456;2024-01-15T13:43:31;1.10;99.90
18384;DHT22;9318;48.644;9.456;2024-01-15T13:45:59;1.10;99.90
18384;DHT22;9318;48.644;9.456;2024-01-15T13:48:30;1.10;99.90
18384;DHT22;9318;48.644;9.456;2024-01-15T13:50:57;1.10;99.90
18384;DHT22;9318;48.644;9.456;2024-01-15T13:53:24;1.10;99.90
18384;DHT22;9318;48.644;9.456;2024-01-15T13:55:51;1.10;99.90
18384;DHT22;9318;48.644;9.456;2024-01-15T13:58:18;1.00;99.90
18384;DHT22;9318;48.644;9.456;2024-01-15T14:00:47;1.00;99.90
18384;DHT22;9318;48.644;9.456;2024-01-15T14:03:17;1.10;99.90
18384;DHT22;9318;48.644;9.456;2024-01-15T14:05:44;1.10;99.90
18384;DHT22;9318;48.644;9.456;2024-01-15T14:08:11;1.10;99.90
18384;DHT22;9318;48.644;9.456;2024-01-15T14:10:38;1.10;99.90
18384;DHT22;9318;48.644;9.456;2024-01-15T14:13:05;1.00;99.90
18384;DHT22;9318;48.644;9.456;2024-01-15T14:15:31;1.00;99.90
18384;DHT22;9318;48.644;9.456;2024-01-15T14:17:58;1.00;99.90
18384;DHT22;9318;48.644;9.456;2024-01-15T14:20:27;1.00;99.90
18384;DHT22;9318;48.644;9.456;2024-01-15T14:22:54;1.00;99.90
18384;DHT22;9318;48.644;9.456;2024-01-15T14:25:21;1.00;99.90
18384;DHT22;9318;48.644;9.456;2024-01-15T14:27:48;1.00;99.90
18384;DHT22;9318;48.644;9.456;2024-01-15T14:30:16;1.00;99.90
18384;DHT22;9318;48.644;9.456;2024-01-15T14:32:43;1.00;99.90
18384;DHT22;9318;48.644;9.456;2024-01-15T14:35:10;1.00;99.90
18384;DHT22;9318;48.644;9.456;2024-01-15T14:37:38;1.00;99.90
18384;DHT22;9318;48.644;9.456;2024-01-15T14:40:06;1.00;99.90
18384;DHT22;9318;48.644;9.456;2024-01-15T14:42:34;1.00;99.90
18384;DHT22;9318;48.644;9.456;2024-01-15T14:45:00;1.00;99.90
18384;DHT22;9318;48.644;9.456;2024-01-15T14:47:28;1.00;99.90
18384;DHT22;9318;48.644;9.456;2024-01-15T14:49:55;1.00;99.90
18384;DHT22;9318;48.644;9.456;2024-01-15T14:52:22;0.90;99.90
18384;DHT22;9318;48.644;9.456;2024-01-15T14:54:50;1.00;99.90
18384;DHT22;9318;48.644;9.456;2024-01-15T14:57:17;0.90;99.90
18384;DHT22;9318;48.644;9.456;2024-01-15T14:59:43;0.90;99.90
18384;DHT22;9318;48.644;9.456;2024-01-15T15:02:10;0.90;99.90
18384;DHT22;9318;48.644;9.456;2024-01-15T15:04:38;0.80;99.90
18384;DHT22;9318;48.644;9.456;2024-01-15T15:07:04;0.80;99.90
18384;DHT22;9318;48.644;9.456;2024-01-15T15:09:31;0.80;99.90
18384;DHT22;9318;48.644;9.456;2024-01-15T15:11:59;0.80;99.90
18384;DHT22;9318;48.644;9.456;2024-01-15T15:14:28;0.90;99.90
18384;DHT22;9318;48.644;9.456;2024-01-15T15:16:54;0.80;99.90
18384;DHT22;9318;48.644;9.456;2024-01-15T15:19:21;0.80;99.90
18384;DHT22;9318;48.644;9.456;2024-01-15T15:21:48;0.70;99.90
18384;DHT22;9318;48.644;9.456;2024-01-15T15:24:15;0.70;99.90
18384;DHT22;9318;48.644;9.456;2024-01-15T15:26:41;0.70;99.90
18384;DHT22;9318;48.644;9.456;2024-01-15T15:29:10;0.60;99.90
18384;DHT22;9318;48.644;9.456;2024-01-15T15:31:37;0.60;99.90
18384;DHT22;9318;48.644;9.456;2024-01-15T15:34:04;0.60;99.90
18384;DHT22;9318;48.644;9.456;2024-01-15T15:36:31;0.60;99.90
18384;DHT22;9318;48.644;9.456;2024-01-15T15:38:57;0.50;99.90
18384;DHT22;9318;48.644;9.456;2024-01-15T15:41:24;0.50;99.90
18384;DHT22;9318;48.644;9.456;2024-01-15T15:43:53;0.50;99.90
18384;DHT22;9318;48.644;9.456;2024-01-15T15:46:21;0.50;99.90
18384;DHT22;9318;48.644;9.456;2024-01-15T15:48:48;0.60;99.90
18384;DHT22;9318;48.644;9.456;2024-01-15T15:51:15;0.50;99.90
18384;DHT22;9318;48.644;9.456;2024-01-15T15:53:42;0.50;99.90
18384;DHT22;9318;48.644;9.456;2024-01-15T15:56:09;0.50;99.90